createdAt,value
2019-01-18T00:01:47.271Z,5.72
2019-01-18T00:04:13.198Z,5.73
2019-01-18T00:06:39.297Z,5.76
2019-01-18T00:09:05.478Z,5.81
2019-01-18T00:11:31.490Z,5.68
2019-01-18T00:13:57.456Z,5.68
2019-01-18T00:16:23.436Z,5.74
2019-01-18T00:18:49.551Z,5.71
2019-01-18T00:21:16.011Z,5.65
2019-01-18T00:23:41.977Z,5.70
2019-01-18T00:26:07.861Z,5.64
2019-01-18T00:28:33.764Z,5.65
2019-01-18T00:30:59.685Z,5.57
2019-01-18T00:33:25.676Z,5.57
2019-01-18T00:35:51.591Z,5.70
2019-01-18T00:38:17.568Z,5.61
2019-01-18T00:40:43.513Z,5.64
2019-01-18T00:43:09.545Z,5.72
2019-01-18T00:45:35.447Z,5.78
2019-01-18T00:48:01.401Z,5.69
2019-01-18T00:50:27.266Z,5.74
2019-01-18T00:52:53.146Z,5.76
2019-01-18T00:55:19.031Z,5.70
2019-01-18T00:57:45.021Z,5.68
2019-01-18T01:00:16.966Z,5.59
2019-01-18T01:02:42.852Z,5.69
2019-01-18T01:05:08.755Z,5.73
2019-01-18T01:07:34.629Z,5.76
2019-01-18T01:10:00.496Z,5.75
2019-01-18T01:12:26.367Z,5.70
2019-01-18T01:14:52.226Z,5.64
2019-01-18T01:17:18.093Z,5.72
2019-01-18T01:19:44.198Z,5.71
2019-01-18T01:22:11.590Z,5.78
2019-01-18T01:24:37.462Z,5.81
2019-01-18T01:27:03.338Z,5.84
2019-01-18T01:29:29.222Z,5.83
2019-01-18T01:31:55.211Z,5.84
2019-01-18T01:34:21.069Z,5.85
2019-01-18T01:36:46.959Z,5.76
2019-01-18T01:39:12.839Z,5.83
2019-01-18T01:41:38.695Z,5.81
2019-01-18T01:44:04.582Z,5.85
2019-01-18T01:46:30.563Z,5.76
2019-01-18T01:48:56.434Z,5.80
2019-01-18T01:51:22.326Z,5.80
2019-01-18T01:53:48.322Z,5.75
2019-01-18T01:56:14.293Z,5.87
2019-01-18T01:58:40.170Z,5.83
2019-01-18T02:01:06.069Z,5.82
2019-01-18T02:03:31.941Z,5.88
2019-01-18T02:05:57.815Z,5.98
2019-01-18T02:08:23.687Z,5.93
2019-01-18T02:10:49.591Z,5.96
2019-01-18T02:13:15.467Z,6.03
2019-01-18T02:15:41.336Z,5.98
2019-01-18T02:18:07.242Z,5.97
2019-01-18T02:20:33.226Z,6.04
2019-01-18T02:22:59.665Z,5.84
2019-01-18T02:25:25.531Z,5.51
2019-01-18T02:27:51.516Z,5.41
2019-01-18T02:30:24.215Z,5.46
2019-01-18T02:32:50.078Z,5.45
2019-01-18T02:35:16.012Z,5.65
2019-01-18T02:37:41.872Z,5.76
2019-01-18T02:40:09.839Z,5.61
2019-01-18T02:42:35.735Z,5.73
2019-01-18T02:45:02.710Z,5.80
2019-01-18T02:47:28.713Z,5.65
2019-01-18T02:49:54.640Z,5.60
2019-01-18T02:52:20.522Z,5.60
2019-01-18T02:54:46.444Z,5.53
2019-01-18T02:57:12.257Z,5.55
2019-01-18T02:59:38.134Z,5.56
2019-01-18T03:02:04.084Z,5.62
2019-01-18T03:04:29.976Z,5.63
2019-01-18T03:06:55.834Z,5.58
2019-01-18T03:09:21.729Z,5.55
2019-01-18T03:11:47.719Z,5.58
2019-01-18T03:14:13.594Z,5.49
2019-01-18T03:16:39.480Z,5.54
2019-01-18T03:19:05.396Z,5.44
2019-01-18T03:21:31.581Z,5.38
2019-01-18T03:23:57.841Z,5.36
2019-01-18T03:26:23.781Z,5.34
2019-01-18T03:28:49.734Z,5.31
2019-01-18T03:31:15.723Z,5.30
2019-01-18T03:33:41.600Z,5.30
2019-01-18T03:36:07.487Z,5.22
2019-01-18T03:38:33.359Z,5.28
2019-01-18T03:40:59.231Z,5.02
2019-01-18T03:43:25.132Z,5.00
2019-01-18T03:45:51.022Z,5.05
2019-01-18T03:48:16.866Z,5.31
2019-01-18T03:50:42.748Z,5.09
2019-01-18T03:53:08.618Z,5.09
2019-01-18T03:55:34.598Z,5.16
2019-01-18T03:58:00.495Z,5.06
2019-01-18T04:00:27.271Z,5.03
2019-01-18T04:02:53.268Z,5.02
2019-01-18T04:05:19.178Z,4.94
2019-01-18T04:07:45.085Z,4.92
2019-01-18T04:10:16.587Z,4.93
2019-01-18T04:12:42.472Z,5.04
2019-01-18T04:15:11.120Z,5.08
2019-01-18T04:17:37.018Z,5.09
2019-01-18T04:20:06.443Z,4.98
2019-01-18T04:22:32.822Z,4.94
2019-01-18T04:24:59.056Z,4.96
2019-01-18T04:27:25.042Z,4.90
2019-01-18T04:29:50.914Z,4.91
2019-01-18T04:32:16.791Z,5.02
2019-01-18T04:34:42.794Z,4.96
2019-01-18T04:37:08.642Z,4.87
2019-01-18T04:39:34.620Z,5.05
2019-01-18T04:42:00.482Z,5.10
2019-01-18T04:44:26.359Z,5.22
2019-01-18T04:46:52.238Z,5.21
2019-01-18T04:49:18.127Z,5.02
2019-01-18T04:51:43.979Z,5.20
2019-01-18T04:54:09.881Z,5.09
2019-01-18T04:56:35.791Z,4.87
2019-01-18T04:59:01.675Z,4.94
2019-01-18T05:01:27.538Z,4.97
2019-01-18T05:03:53.418Z,5.09
2019-01-18T05:06:19.282Z,5.23
2019-01-18T05:08:45.148Z,5.34
2019-01-18T05:11:11.079Z,5.28
2019-01-18T05:13:36.953Z,5.21
2019-01-18T05:16:04.728Z,5.39
2019-01-18T05:18:30.612Z,5.50
2019-01-18T05:20:56.515Z,5.15
2019-01-18T05:23:22.732Z,5.14
2019-01-18T05:25:48.857Z,5.21
2019-01-18T05:28:14.714Z,5.24
2019-01-18T05:30:47.295Z,5.36
2019-01-18T05:33:08.362Z,5.30
2019-01-18T05:35:34.236Z,5.43
2019-01-18T05:38:00.198Z,5.24
2019-01-18T05:40:26.056Z,5.20
2019-01-18T05:42:51.943Z,5.17
2019-01-18T05:45:19.621Z,4.93
2019-01-18T05:47:45.613Z,5.00
2019-01-18T05:50:19.254Z,5.04
2019-01-18T05:52:45.216Z,5.29
2019-01-18T05:55:11.322Z,5.32
2019-01-18T05:57:37.213Z,5.44
2019-01-18T06:00:06.997Z,5.30
2019-01-18T06:02:32.872Z,5.01
2019-01-18T06:04:59.458Z,5.12
2019-01-18T06:07:25.339Z,5.09
2019-01-18T06:09:51.224Z,5.12
2019-01-18T06:12:17.111Z,5.08
2019-01-18T06:14:42.968Z,5.19
2019-01-18T06:17:09.048Z,5.20
2019-01-18T06:19:34.925Z,5.15
2019-01-18T06:22:00.923Z,5.06
2019-01-18T06:24:26.928Z,5.10
2019-01-18T06:26:53.315Z,5.40
2019-01-18T06:29:19.217Z,5.45
2019-01-18T06:31:45.116Z,5.45
2019-01-18T06:34:11.001Z,5.41
2019-01-18T06:36:36.888Z,5.36
2019-01-18T06:39:04.782Z,5.35
2019-01-18T06:41:32.162Z,5.10
2019-01-18T06:43:58.075Z,4.99
2019-01-18T06:46:24.349Z,5.06
2019-01-18T06:48:50.819Z,5.15
2019-01-18T06:51:16.734Z,5.22
2019-01-18T06:53:42.633Z,5.28
2019-01-18T06:56:08.494Z,5.13
2019-01-18T06:58:34.442Z,5.08
2019-01-18T07:01:00.323Z,5.22
2019-01-18T07:03:26.246Z,4.95
2019-01-18T07:05:52.115Z,4.86
2019-01-18T07:08:18.009Z,4.74
2019-01-18T07:10:43.877Z,4.77
2019-01-18T07:13:09.835Z,4.76
2019-01-18T07:15:35.744Z,4.68
2019-01-18T07:18:01.634Z,4.76
2019-01-18T07:20:27.524Z,4.95
2019-01-18T07:22:53.408Z,4.92
2019-01-18T07:25:25.228Z,4.94
2019-01-18T07:27:52.186Z,5.01
2019-01-18T07:30:21.858Z,5.04
2019-01-18T07:32:47.732Z,5.10
2019-01-18T07:35:13.626Z,5.10
2019-01-18T07:37:39.502Z,5.12
2019-01-18T07:40:07.387Z,5.20
2019-01-18T07:42:33.646Z,5.10
2019-01-18T07:44:59.537Z,5.07
2019-01-18T07:47:25.747Z,5.06
2019-01-18T07:49:51.627Z,5.24
2019-01-18T07:52:17.511Z,5.16
2019-01-18T07:54:43.407Z,5.06
2019-01-18T07:57:09.295Z,5.01
2019-01-18T07:59:35.210Z,5.12
2019-01-18T08:02:01.124Z,5.24
2019-01-18T08:04:26.973Z,5.13
2019-01-18T08:06:52.885Z,5.10
2019-01-18T08:09:18.768Z,5.36
2019-01-18T08:11:44.733Z,5.50
2019-01-18T08:14:10.622Z,5.48
2019-01-18T08:16:36.481Z,5.32
2019-01-18T08:19:02.373Z,5.20
2019-01-18T08:21:28.268Z,5.46
2019-01-18T08:23:54.230Z,5.67
2019-01-18T08:26:20.538Z,5.48
2019-01-18T08:28:48.553Z,5.33
2019-01-18T08:31:14.606Z,5.28
2019-01-18T08:33:41.772Z,5.37
2019-01-18T08:36:07.661Z,5.38
2019-01-18T08:38:33.577Z,5.53
2019-01-18T08:40:59.449Z,5.71
2019-01-18T08:43:25.439Z,5.78
2019-01-18T08:45:51.343Z,6.17
2019-01-18T08:48:17.214Z,6.18
2019-01-18T08:50:43.099Z,6.40
2019-01-18T08:53:09.073Z,6.41
2019-01-18T08:55:34.977Z,6.36
2019-01-18T08:58:00.870Z,6.34
2019-01-18T09:00:31.003Z,6.25
2019-01-18T09:02:56.971Z,6.32
2019-01-18T09:05:24.792Z,6.24
2019-01-18T09:07:50.683Z,5.96
2019-01-18T09:10:19.573Z,6.03
2019-01-18T09:12:45.539Z,6.04
2019-01-18T09:15:12.413Z,5.92
2019-01-18T09:17:39.815Z,6.11
2019-01-18T09:20:15.502Z,5.99
2019-01-18T09:22:41.379Z,6.10
2019-01-18T09:25:07.252Z,6.14
2019-01-18T09:27:33.602Z,6.11
2019-01-18T09:30:00.472Z,5.88
2019-01-18T09:32:26.315Z,5.75
2019-01-18T09:34:52.348Z,5.85
2019-01-18T09:37:18.215Z,5.83
2019-01-18T09:39:45.439Z,5.77
2019-01-18T09:42:11.523Z,6.11
2019-01-18T09:44:37.410Z,6.32
2019-01-18T09:47:03.248Z,6.31
2019-01-18T09:49:29.286Z,6.40
2019-01-18T09:51:55.227Z,6.43
2019-01-18T09:54:21.188Z,6.49
2019-01-18T09:56:47.074Z,6.73
2019-01-18T09:59:12.940Z,6.90
2019-01-18T10:01:38.809Z,6.92
2019-01-18T10:04:04.715Z,6.97
2019-01-18T10:06:30.595Z,6.59
2019-01-18T10:08:56.456Z,6.67
2019-01-18T10:11:22.384Z,6.56
2019-01-18T10:13:48.290Z,6.78
2019-01-18T10:16:14.278Z,7.00
2019-01-18T10:18:40.152Z,7.22
2019-01-18T10:21:06.023Z,7.28
2019-01-18T10:23:31.999Z,7.35
2019-01-18T10:25:57.949Z,7.11
2019-01-18T10:28:24.510Z,7.25
2019-01-18T10:30:51.672Z,7.40
2019-01-18T10:33:17.533Z,7.25
2019-01-18T10:35:43.779Z,6.98
2019-01-18T10:38:09.647Z,7.01
2019-01-18T10:40:35.640Z,6.97
2019-01-18T10:43:01.579Z,6.75
2019-01-18T10:45:27.443Z,6.75
2019-01-18T10:47:53.292Z,7.05
2019-01-18T10:50:22.525Z,7.11
2019-01-18T10:52:48.370Z,6.84
2019-01-18T10:55:14.358Z,6.86
2019-01-18T10:57:40.326Z,6.89
2019-01-18T11:00:12.767Z,7.26
2019-01-18T11:02:38.612Z,7.79
2019-01-18T11:05:07.498Z,7.54
2019-01-18T11:07:33.397Z,7.95
2019-01-18T11:09:59.264Z,7.43
2019-01-18T11:12:25.173Z,7.51
2019-01-18T11:14:51.048Z,7.91
2019-01-18T11:17:16.955Z,7.62
2019-01-18T11:19:42.860Z,7.79
2019-01-18T11:22:08.756Z,7.83
2019-01-18T11:24:34.733Z,7.99
2019-01-18T11:27:00.612Z,8.22
2019-01-18T11:29:27.051Z,7.75
2019-01-18T11:31:54.053Z,8.03
2019-01-18T11:34:20.057Z,8.14
2019-01-18T11:36:46.017Z,8.47
2019-01-18T11:39:11.933Z,8.59
2019-01-18T11:41:37.825Z,8.58
2019-01-18T11:44:04.308Z,8.67
2019-01-18T11:46:30.203Z,8.17
2019-01-18T11:48:56.178Z,8.22
2019-01-18T11:51:22.084Z,8.14
2019-01-18T11:53:47.959Z,8.44
2019-01-18T11:56:13.829Z,8.05
2019-01-18T11:58:39.738Z,7.95
2019-01-18T12:01:05.679Z,8.34
2019-01-18T12:03:31.482Z,8.93
2019-01-18T12:05:57.377Z,9.07
2019-01-18T12:08:23.264Z,9.33
2019-01-18T12:10:49.145Z,9.68
2019-01-18T12:13:14.997Z,9.91
2019-01-18T12:15:40.883Z,10.04
2019-01-18T12:18:06.799Z,9.89
2019-01-18T12:20:33.364Z,9.89
2019-01-18T12:22:59.342Z,9.62
2019-01-18T12:25:25.225Z,9.53
2019-01-18T12:27:51.086Z,9.50
2019-01-18T12:30:27.484Z,9.19
2019-01-18T12:32:55.050Z,8.83
2019-01-18T12:35:20.948Z,8.80
2019-01-18T12:37:46.798Z,8.56
2019-01-18T12:40:12.792Z,8.58
2019-01-18T12:42:58.522Z,8.65
2019-01-18T12:45:24.393Z,8.80
2019-01-18T12:47:50.254Z,9.24
2019-01-18T12:50:25.705Z,9.06
2019-01-18T12:52:51.577Z,9.62
2019-01-18T12:55:17.457Z,10.04
2019-01-18T12:57:43.395Z,10.09
2019-01-18T13:00:18.619Z,11.22
2019-01-18T13:02:44.485Z,14.28
2019-01-18T13:05:15.778Z,15.65
2019-01-18T13:07:41.857Z,14.46
2019-01-18T13:10:12.286Z,13.41
2019-01-18T13:12:36.104Z,15.54
2019-01-18T13:15:08.263Z,14.74
2019-01-18T13:17:34.192Z,14.66
2019-01-18T13:20:00.095Z,14.52
2019-01-18T13:22:26.277Z,13.55
2019-01-18T13:24:52.154Z,14.46
2019-01-18T13:27:18.000Z,13.26
2019-01-18T13:29:43.851Z,11.31
2019-01-18T13:32:09.842Z,11.18
2019-01-18T13:34:36.631Z,10.80
2019-01-18T13:37:02.704Z,10.48
2019-01-18T13:39:28.596Z,9.96
2019-01-18T13:41:54.484Z,9.31
2019-01-18T13:44:21.340Z,9.30
2019-01-18T13:46:47.229Z,9.22
2019-01-18T13:49:13.188Z,9.21
2019-01-18T13:51:39.111Z,9.09
2019-01-18T13:54:04.997Z,9.09
2019-01-18T13:56:30.862Z,8.79
2019-01-18T13:58:56.765Z,8.81
2019-01-18T14:01:22.613Z,8.66
2019-01-18T14:03:48.472Z,8.70
2019-01-18T14:06:14.361Z,8.80
2019-01-18T14:08:42.231Z,8.78
2019-01-18T14:11:08.060Z,8.68
2019-01-18T14:13:37.416Z,8.68
2019-01-18T14:16:01.712Z,8.70
2019-01-18T14:18:27.586Z,8.79
2019-01-18T14:20:53.500Z,8.77
2019-01-18T14:23:19.344Z,8.85
2019-01-18T14:25:45.207Z,8.81
2019-01-18T14:28:11.259Z,8.90
2019-01-18T14:30:37.149Z,8.66
2019-01-18T14:33:03.150Z,8.73
2019-01-18T14:35:29.933Z,8.44
2019-01-18T14:37:55.839Z,8.57
2019-01-18T14:40:21.699Z,8.36
2019-01-18T14:42:49.870Z,8.35
2019-01-18T14:45:19.436Z,8.52
2019-01-18T14:47:45.410Z,8.36
2019-01-18T14:50:15.169Z,8.55
2019-01-18T14:52:41.086Z,8.43
2019-01-18T14:55:06.973Z,8.44
2019-01-18T14:57:32.831Z,8.40
2019-01-18T14:59:58.754Z,8.15
2019-01-18T15:02:24.598Z,8.19
2019-01-18T15:04:50.468Z,8.15
2019-01-18T15:07:16.323Z,8.31
2019-01-18T15:09:42.204Z,8.16
2019-01-18T15:12:08.088Z,8.23
2019-01-18T15:14:33.972Z,8.06
2019-01-18T15:16:59.873Z,7.86
2019-01-18T15:19:25.733Z,8.01
2019-01-18T15:21:51.607Z,7.89
2019-01-18T15:24:17.487Z,7.95
2019-01-18T15:26:43.372Z,7.84
2019-01-18T15:29:09.239Z,7.92
2019-01-18T15:31:35.121Z,7.89
2019-01-18T15:34:01.092Z,7.78
2019-01-18T15:36:27.382Z,7.81
2019-01-18T15:38:53.239Z,7.82
2019-01-18T15:41:19.148Z,7.71
2019-01-18T15:43:45.217Z,7.44
2019-01-18T15:46:11.088Z,7.40
2019-01-18T15:48:37.428Z,7.32
2019-01-18T15:51:03.287Z,7.24
2019-01-18T15:53:29.187Z,7.28
2019-01-18T15:55:55.067Z,7.25
2019-01-18T15:58:20.943Z,7.20
2019-01-18T16:00:46.842Z,7.12
2019-01-18T16:03:16.015Z,7.18
2019-01-18T16:05:40.494Z,7.09
2019-01-18T16:08:06.465Z,7.08
2019-01-18T16:10:32.952Z,6.93
2019-01-18T16:12:58.865Z,6.96
2019-01-18T16:15:31.740Z,6.91
2019-01-18T16:17:57.583Z,6.81
2019-01-18T16:20:23.856Z,6.83
2019-01-18T16:22:49.847Z,6.72
2019-01-18T16:25:21.565Z,6.73
2019-01-18T16:27:47.590Z,6.66
2019-01-18T16:30:15.902Z,6.69
2019-01-18T16:32:41.750Z,6.69
2019-01-18T16:35:10.481Z,6.69
2019-01-18T16:37:37.225Z,6.56
2019-01-18T16:40:06.898Z,6.57
2019-01-18T16:42:33.240Z,6.43
2019-01-18T16:44:59.124Z,6.45
2019-01-18T16:47:25.014Z,6.41
2019-01-18T16:49:50.872Z,6.37
2019-01-18T16:52:16.767Z,6.42
2019-01-18T16:54:42.609Z,6.40
2019-01-18T16:57:08.496Z,6.37
2019-01-18T16:59:34.795Z,6.38
2019-01-18T17:02:00.682Z,6.41
2019-01-18T17:04:26.545Z,6.30
2019-01-18T17:06:52.425Z,6.10
2019-01-18T17:09:18.292Z,6.17
2019-01-18T17:11:44.179Z,6.24
2019-01-18T17:14:10.135Z,6.00
2019-01-18T17:16:36.031Z,6.12
2019-01-18T17:19:01.926Z,5.97
2019-01-18T17:21:27.807Z,6.03
2019-01-18T17:23:53.663Z,6.17
2019-01-18T17:26:19.536Z,6.02
2019-01-18T17:28:45.403Z,5.94
2019-01-18T17:31:11.292Z,5.96
2019-01-18T17:33:38.560Z,6.00
2019-01-18T17:36:16.557Z,5.95
2019-01-18T17:38:47.491Z,5.90
2019-01-18T17:41:41.470Z,5.94
2019-01-18T17:44:31.269Z,5.80
2019-01-18T17:47:34.521Z,6.03
2019-01-18T17:50:30.357Z,5.83
2019-01-18T17:53:30.678Z,5.73
2019-01-18T17:56:03.220Z,5.99
2019-01-18T17:58:53.959Z,6.01
2019-01-18T18:01:23.665Z,5.85
2019-01-18T18:03:59.160Z,6.01
2019-01-18T18:06:45.582Z,5.81
2019-01-18T18:09:18.256Z,5.74
2019-01-18T18:12:02.872Z,5.84
2019-01-18T18:14:42.261Z,6.07
2019-01-18T18:17:14.714Z,6.04
2019-01-18T18:19:53.207Z,5.94
2019-01-18T18:22:34.637Z,5.80
2019-01-18T18:25:39.558Z,5.57
2019-01-18T18:28:44.220Z,5.69
2019-01-18T18:31:16.894Z,5.64
2019-01-18T18:34:12.568Z,5.50
2019-01-18T18:36:55.116Z,5.44
2019-01-18T18:39:28.535Z,5.37
2019-01-18T18:42:14.742Z,5.50
2019-01-18T18:44:44.418Z,5.44
2019-01-18T18:47:17.046Z,5.47
2019-01-18T18:49:52.950Z,5.35
2019-01-18T18:52:29.527Z,5.31
2019-01-18T18:55:14.427Z,5.23
2019-01-18T18:58:04.791Z,5.22
2019-01-18T19:00:49.934Z,5.27
2019-01-18T19:03:19.611Z,5.24
2019-01-18T19:06:10.228Z,5.22
2019-01-18T19:08:57.556Z,5.22
2019-01-18T19:11:33.195Z,5.20
2019-01-18T19:14:14.996Z,5.29
2019-01-18T19:17:08.408Z,5.34
2019-01-18T19:20:05.743Z,5.15
2019-01-18T19:22:59.225Z,5.15
2019-01-18T19:25:34.846Z,5.36
2019-01-18T19:28:22.924Z,5.39
2019-01-18T19:31:01.701Z,5.38
2019-01-18T19:33:34.424Z,5.43
2019-01-18T19:36:13.272Z,5.37
2019-01-18T19:38:58.413Z,5.36
2019-01-18T19:41:34.760Z,5.26
2019-01-18T19:44:04.451Z,5.23
2019-01-18T19:46:49.206Z,5.24
2019-01-18T19:49:38.900Z,5.10
2019-01-18T19:52:09.469Z,5.11
2019-01-18T19:54:51.436Z,5.05
2019-01-18T19:57:36.297Z,4.96
2019-01-18T20:00:22.887Z,4.86
2019-01-18T20:02:55.295Z,4.81
2019-01-18T20:05:37.214Z,4.91
2019-01-18T20:08:15.784Z,5.02
2019-01-18T20:10:57.741Z,5.05
2019-01-18T20:13:36.013Z,5.07
2019-01-18T20:16:25.423Z,5.08
2019-01-18T20:19:13.626Z,5.03
2019-01-18T20:21:52.484Z,4.96
2019-01-18T20:24:40.583Z,4.93
2019-01-18T20:27:25.678Z,4.84
2019-01-18T20:30:04.187Z,4.83
2019-01-18T20:32:51.553Z,4.77
2019-01-18T20:35:33.431Z,4.77
2019-01-18T20:38:23.646Z,4.68
2019-01-18T20:40:54.295Z,4.68
2019-01-18T20:43:27.848Z,4.72
2019-01-18T20:46:26.423Z,4.72
2019-01-18T20:49:15.992Z,4.66
2019-01-18T20:51:45.689Z,4.62
2019-01-18T20:54:32.211Z,4.73
2019-01-18T20:57:01.901Z,4.72
2019-01-18T20:59:37.571Z,4.72
2019-01-18T21:02:13.435Z,4.77
2019-01-18T21:04:55.203Z,4.78
2019-01-18T21:07:41.762Z,4.65
2019-01-18T21:10:26.006Z,4.56
2019-01-18T21:13:16.336Z,4.54
2019-01-18T21:16:07.179Z,4.46
2019-01-18T21:18:51.920Z,4.37
2019-01-18T21:21:43.960Z,4.26
2019-01-18T21:24:28.811Z,4.23
2019-01-18T21:26:58.630Z,4.13
2019-01-18T21:29:34.545Z,4.04
2019-01-18T21:32:19.616Z,4.04
2019-01-18T21:34:49.326Z,4.07
2019-01-18T21:37:35.578Z,4.04
2019-01-18T21:40:23.774Z,4.08
2019-01-18T21:43:16.583Z,3.99
2019-01-18T21:45:55.958Z,3.99
2019-01-18T21:48:28.146Z,4.04
2019-01-18T21:51:02.380Z,4.03
2019-01-18T21:53:41.324Z,4.14
2019-01-18T21:56:35.672Z,4.19
2019-01-18T21:59:25.009Z,4.15
2019-01-18T22:02:00.749Z,4.14
2019-01-18T22:04:31.071Z,4.12
2019-01-18T22:07:06.746Z,4.13
2019-01-18T22:09:39.661Z,4.11
2019-01-18T22:12:15.362Z,4.08
2019-01-18T22:15:10.983Z,4.05
2019-01-18T22:17:47.006Z,4.16
2019-01-18T22:20:34.440Z,4.17
2019-01-18T22:23:13.323Z,4.17
2019-01-18T22:25:45.831Z,4.27
2019-01-18T22:28:43.225Z,4.21
2019-01-18T22:31:31.305Z,4.26
2019-01-18T22:34:04.078Z,4.25
2019-01-18T22:36:42.835Z,4.25
2019-01-18T22:39:33.299Z,4.22
2019-01-18T22:42:19.332Z,4.12
2019-01-18T22:44:49.689Z,4.07
2019-01-18T22:47:25.707Z,3.99
2019-01-18T22:49:55.409Z,3.99
2019-01-18T22:52:31.226Z,4.08
2019-01-18T22:55:17.156Z,4.03
2019-01-18T22:57:46.891Z,4.06
2019-01-18T23:00:55.477Z,4.04
2019-01-18T23:03:27.886Z,4.15
2019-01-18T23:06:14.509Z,4.06
2019-01-18T23:09:08.499Z,4.07
2019-01-18T23:11:47.295Z,4.08
2019-01-18T23:14:33.590Z,4.04
2019-01-18T23:17:15.768Z,3.98
2019-01-18T23:19:48.233Z,3.98
2019-01-18T23:22:26.598Z,4.07
2019-01-18T23:24:59.005Z,4.16
2019-01-18T23:27:31.318Z,4.25
2019-01-18T23:30:10.004Z,4.17
2019-01-18T23:33:15.879Z,4.18
2019-01-18T23:35:51.060Z,4.15
2019-01-18T23:38:52.377Z,4.23
2019-01-18T23:41:27.836Z,4.28
2019-01-18T23:44:00.321Z,4.35
2019-01-18T23:46:40.336Z,4.37
2019-01-18T23:49:16.444Z,4.38
2019-01-18T23:51:52.201Z,4.29
2019-01-18T23:54:24.657Z,4.29
2019-01-18T23:57:10.696Z,4.43
2019-01-18T23:59:46.642Z,4.42
